sensor_id;sensor_type;location;lat;lon;timestamp;P1;durP1;ratioP1;P2;durP2;ratioP2
75928;SDS011;64606;44.062;2.986;2024-03-23T00:55:25;2.75;;;1.40;;
75928;SDS011;64606;44.062;2.986;2024-03-23T00:57:51;4.03;;;1.40;;
75928;SDS011;64606;44.062;2.986;2024-03-23T01:00:17;2.10;;;1.30;;
75928;SDS011;64606;44.062;2.986;2024-03-23T01:02:43;3.63;;;1.17;;
75928;SDS011;64606;44.062;2.986;2024-03-23T01:05:09;2.42;;;1.20;;
75928;SDS011;64606;44.062;2.986;2024-03-23T01:07:35;2.67;;;1.40;;
75928;SDS011;64606;44.062;2.986;2024-03-23T01:10:02;1.98;;;1.10;;
75928;SDS011;64606;44.062;2.986;2024-03-23T01:12:28;4.25;;;1.67;;
75928;SDS011;64606;44.062;2.986;2024-03-23T01:14:54;3.35;;;1.40;;
75928;SDS011;64606;44.062;2.986;2024-03-23T01:17:20;2.45;;;1.40;;
75928;SDS011;64606;44.062;2.986;2024-03-23T01:19:46;5.47;;;1.38;;
75928;SDS011;64606;44.062;2.986;2024-03-23T01:22:12;4.85;;;1.23;;
75928;SDS011;64606;44.062;2.986;2024-03-23T01:24:39;4.18;;;1.52;;
75928;SDS011;64606;44.062;2.986;2024-03-23T01:27:05;2.38;;;1.40;;
75928;SDS011;64606;44.062;2.986;2024-03-23T01:29:31;4.20;;;1.30;;
75928;SDS011;64606;44.062;2.986;2024-03-23T01:31:57;1.75;;;1.15;;
75928;SDS011;64606;44.062;2.986;2024-03-23T01:34:23;1.55;;;1.30;;
75928;SDS011;64606;44.062;2.986;2024-03-23T01:36:50;3.42;;;1.30;;
75928;SDS011;64606;44.062;2.986;2024-03-23T01:39:16;2.45;;;1.30;;
75928;SDS011;64606;44.062;2.986;2024-03-23T01:41:42;3.53;;;1.42;;
75928;SDS011;64606;44.062;2.986;2024-03-23T01:44:08;3.08;;;1.20;;
75928;SDS011;64606;44.062;2.986;2024-03-23T01:46:35;2.78;;;1.17;;
75928;SDS011;64606;44.062;2.986;2024-03-23T01:49:02;2.15;;;1.23;;
75928;SDS011;64606;44.062;2.986;2024-03-23T01:51:28;2.35;;;1.50;;
75928;SDS011;64606;44.062;2.986;2024-03-23T01:53:55;2.20;;;1.40;;
75928;SDS011;64606;44.062;2.986;2024-03-23T01:56:22;4.72;;;1.27;;
75928;SDS011;64606;44.062;2.986;2024-03-23T01:58:48;1.90;;;1.10;;
75928;SDS011;64606;44.062;2.986;2024-03-23T02:01:15;1.70;;;1.08;;
75928;SDS011;64606;44.062;2.986;2024-03-23T02:03:41;2.63;;;1.48;;
75928;SDS011;64606;44.062;2.986;2024-03-23T02:06:07;2.63;;;1.20;;
75928;SDS011;64606;44.062;2.986;2024-03-23T02:08:34;3.15;;;1.40;;
75928;SDS011;64606;44.062;2.986;2024-03-23T02:11:00;2.55;;;1.40;;
75928;SDS011;64606;44.062;2.986;2024-03-23T02:13:26;2.22;;;1.25;;
75928;SDS011;64606;44.062;2.986;2024-03-23T02:15:52;3.97;;;1.33;;
75928;SDS011;64606;44.062;2.986;2024-03-23T02:18:18;1.85;;;1.17;;
75928;SDS011;64606;44.062;2.986;2024-03-23T02:20:44;3.42;;;1.48;;
75928;SDS011;64606;44.062;2.986;2024-03-23T02:23:14;3.47;;;1.48;;
75928;SDS011;64606;44.062;2.986;2024-03-23T02:25:41;2.72;;;1.10;;
75928;SDS011;64606;44.062;2.986;2024-03-23T02:28:07;2.78;;;1.20;;
75928;SDS011;64606;44.062;2.986;2024-03-23T02:30:34;3.60;;;1.40;;
75928;SDS011;64606;44.062;2.986;2024-03-23T02:33:00;2.78;;;1.30;;
75928;SDS011;64606;44.062;2.986;2024-03-23T02:35:26;3.25;;;1.13;;
75928;SDS011;64606;44.062;2.986;2024-03-23T02:37:52;3.13;;;1.67;;
75928;SDS011;64606;44.062;2.986;2024-03-23T02:40:21;1.42;;;1.17;;
75928;SDS011;64606;44.062;2.986;2024-03-23T02:42:47;2.22;;;1.40;;
75928;SDS011;64606;44.062;2.986;2024-03-23T02:45:13;3.53;;;1.25;;
75928;SDS011;64606;44.062;2.986;2024-03-23T02:47:39;2.97;;;1.42;;
75928;SDS011;64606;44.062;2.986;2024-03-23T02:50:05;2.53;;;1.25;;
75928;SDS011;64606;44.062;2.986;2024-03-23T02:52:32;2.15;;;1.30;;
75928;SDS011;64606;44.062;2.986;2024-03-23T02:54:58;2.08;;;1.15;;
75928;SDS011;64606;44.062;2.986;2024-03-23T02:57:24;3.00;;;1.10;;
75928;SDS011;64606;44.062;2.986;2024-03-23T02:59:50;1.85;;;1.17;;
75928;SDS011;64606;44.062;2.986;2024-03-23T03:02:16;3.17;;;1.60;;
75928;SDS011;64606;44.062;2.986;2024-03-23T03:04:42;3.90;;;1.15;;
75928;SDS011;64606;44.062;2.986;2024-03-23T03:07:08;2.80;;;1.10;;
75928;SDS011;64606;44.062;2.986;2024-03-23T03:09:35;3.33;;;1.20;;
75928;SDS011;64606;44.062;2.986;2024-03-23T03:12:01;3.08;;;1.30;;
75928;SDS011;64606;44.062;2.986;2024-03-23T03:14:28;1.60;;;1.30;;
75928;SDS011;64606;44.062;2.986;2024-03-23T03:16:54;4.00;;;1.65;;
75928;SDS011;64606;44.062;2.986;2024-03-23T03:19:20;2.25;;;1.08;;
75928;SDS011;64606;44.062;2.986;2024-03-23T03:21:46;2.38;;;1.17;;
75928;SDS011;64606;44.062;2.986;2024-03-23T03:24:13;3.10;;;1.20;;
75928;SDS011;64606;44.062;2.986;2024-03-23T03:26:39;1.42;;;1.10;;
75928;SDS011;64606;44.062;2.986;2024-03-23T03:29:05;4.93;;;1.30;;
75928;SDS011;64606;44.062;2.986;2024-03-23T03:31:31;2.63;;;1.00;;
75928;SDS011;64606;44.062;2.986;2024-03-23T03:33:57;2.08;;;1.20;;
75928;SDS011;64606;44.062;2.986;2024-03-23T03:36:23;1.30;;;1.10;;
75928;SDS011;64606;44.062;2.986;2024-03-23T03:38:49;3.40;;;1.35;;
75928;SDS011;64606;44.062;2.986;2024-03-23T03:41:16;1.40;;;1.02;;
75928;SDS011;64606;44.062;2.986;2024-03-23T03:43:42;2.05;;;1.10;;
75928;SDS011;64606;44.062;2.986;2024-03-23T03:46:08;1.90;;;1.25;;
75928;SDS011;64606;44.062;2.986;2024-03-23T03:48:34;2.75;;;1.30;;
75928;SDS011;64606;44.062;2.986;2024-03-23T03:51:00;1.38;;;1.17;;
75928;SDS011;64606;44.062;2.986;2024-03-23T03:53:27;1.35;;;1.00;;
75928;SDS011;64606;44.062;2.986;2024-03-23T03:55:53;2.08;;;1.02;;
75928;SDS011;64606;44.062;2.986;2024-03-23T03:58:19;2.17;;;1.20;;
75928;SDS011;64606;44.062;2.986;2024-03-23T04:00:45;2.33;;;1.45;;
75928;SDS011;64606;44.062;2.986;2024-03-23T04:03:11;1.88;;;1.20;;
75928;SDS011;64606;44.062;2.986;2024-03-23T04:05:37;1.73;;;1.10;;
75928;SDS011;64606;44.062;2.986;2024-03-23T04:08:04;2.10;;;1.23;;
75928;SDS011;64606;44.062;2.986;2024-03-23T04:10:30;3.00;;;1.27;;
75928;SDS011;64606;44.062;2.986;2024-03-23T04:12:56;2.17;;;1.42;;
75928;SDS011;64606;44.062;2.986;2024-03-23T04:15:22;3.60;;;1.20;;
75928;SDS011;64606;44.062;2.986;2024-03-23T04:17:48;3.53;;;1.00;;
75928;SDS011;64606;44.062;2.986;2024-03-23T04:20:14;2.08;;;1.33;;
75928;SDS011;64606;44.062;2.986;2024-03-23T04:22:42;2.20;;;1.52;;
75928;SDS011;64606;44.062;2.986;2024-03-23T04:25:08;2.72;;;1.30;;
75928;SDS011;64606;44.062;2.986;2024-03-23T04:27:36;1.75;;;1.08;;
75928;SDS011;64606;44.062;2.986;2024-03-23T04:30:02;2.25;;;1.25;;
75928;SDS011;64606;44.062;2.986;2024-03-23T04:32:30;2.42;;;1.27;;
75928;SDS011;64606;44.062;2.986;2024-03-23T04:34:56;2.05;;;1.20;;
75928;SDS011;64606;44.062;2.986;2024-03-23T04:37:22;2.47;;;1.10;;
75928;SDS011;64606;44.062;2.986;2024-03-23T04:39:48;1.42;;;1.02;;
75928;SDS011;64606;44.062;2.986;2024-03-23T04:42:15;2.05;;;1.20;;
75928;SDS011;64606;44.062;2.986;2024-03-23T04:44:41;1.92;;;1.35;;
75928;SDS011;64606;44.062;2.986;2024-03-23T04:47:08;2.70;;;1.40;;
75928;SDS011;64606;44.062;2.986;2024-03-23T04:49:34;1.95;;;1.25;;
75928;SDS011;64606;44.062;2.986;2024-03-23T04:52:03;1.92;;;1.30;;
75928;SDS011;64606;44.062;2.986;2024-03-23T04:54:29;4.50;;;1.60;;
75928;SDS011;64606;44.062;2.986;2024-03-23T04:56:56;3.20;;;1.40;;
75928;SDS011;64606;44.062;2.986;2024-03-23T04:59:22;2.13;;;1.40;;
75928;SDS011;64606;44.062;2.986;2024-03-23T05:01:48;1.73;;;1.15;;
75928;SDS011;64606;44.062;2.986;2024-03-23T05:04:14;2.10;;;1.20;;
75928;SDS011;64606;44.062;2.986;2024-03-23T05:06:40;3.63;;;1.38;;
75928;SDS011;64606;44.062;2.986;2024-03-23T05:09:06;1.75;;;1.27;;
75928;SDS011;64606;44.062;2.986;2024-03-23T05:11:37;1.88;;;1.20;;
75928;SDS011;64606;44.062;2.986;2024-03-23T05:14:03;3.08;;;1.40;;
75928;SDS011;64606;44.062;2.986;2024-03-23T05:16:29;1.75;;;1.08;;
75928;SDS011;64606;44.062;2.986;2024-03-23T05:18:55;2.17;;;1.25;;
75928;SDS011;64606;44.062;2.986;2024-03-23T05:21:22;1.98;;;1.20;;
75928;SDS011;64606;44.062;2.986;2024-03-23T05:23:48;3.33;;;1.20;;
75928;SDS011;64606;44.062;2.986;2024-03-23T05:26:14;1.45;;;1.10;;
75928;SDS011;64606;44.062;2.986;2024-03-23T05:28:40;3.00;;;1.25;;
75928;SDS011;64606;44.062;2.986;2024-03-23T05:31:06;1.63;;;1.20;;
75928;SDS011;64606;44.062;2.986;2024-03-23T05:33:34;2.53;;;1.45;;
75928;SDS011;64606;44.062;2.986;2024-03-23T05:36:00;2.13;;;1.00;;
75928;SDS011;64606;44.062;2.986;2024-03-23T05:38:27;1.67;;;1.05;;
75928;SDS011;64606;44.062;2.986;2024-03-23T05:40:55;2.17;;;1.13;;
75928;SDS011;64606;44.062;2.986;2024-03-23T05:43:22;2.00;;;1.15;;
75928;SDS011;64606;44.062;2.986;2024-03-23T05:45:55;1.83;;;1.10;;
75928;SDS011;64606;44.062;2.986;2024-03-23T05:48:21;2.97;;;1.10;;
75928;SDS011;64606;44.062;2.986;2024-03-23T05:50:48;1.67;;;1.10;;
75928;SDS011;64606;44.062;2.986;2024-03-23T05:53:15;1.60;;;1.08;;
75928;SDS011;64606;44.062;2.986;2024-03-23T05:55:41;2.10;;;1.20;;
75928;SDS011;64606;44.062;2.986;2024-03-23T05:58:07;2.72;;;1.45;;
75928;SDS011;64606;44.062;2.986;2024-03-23T06:00:33;2.05;;;1.17;;
75928;SDS011;64606;44.062;2.986;2024-03-23T06:03:00;3.78;;;1.20;;
75928;SDS011;64606;44.062;2.986;2024-03-23T06:05:26;2.30;;;1.52;;
75928;SDS011;64606;44.062;2.986;2024-03-23T06:07:52;2.20;;;1.13;;
75928;SDS011;64606;44.062;2.986;2024-03-23T06:10:18;1.83;;;1.10;;
75928;SDS011;64606;44.062;2.986;2024-03-23T06:12:47;1.20;;;1.10;;
75928;SDS011;64606;44.062;2.986;2024-03-23T06:15:15;1.35;;;0.90;;
75928;SDS011;64606;44.062;2.986;2024-03-23T06:17:42;2.78;;;0.90;;
75928;SDS011;64606;44.062;2.986;2024-03-23T06:20:08;2.50;;;1.25;;
75928;SDS011;64606;44.062;2.986;2024-03-23T06:22:35;2.00;;;1.10;;
75928;SDS011;64606;44.062;2.986;2024-03-23T06:25:01;1.23;;;0.90;;
75928;SDS011;64606;44.062;2.986;2024-03-23T06:27:27;1.42;;;1.10;;
75928;SDS011;64606;44.062;2.986;2024-03-23T06:29:54;1.00;;;0.80;;
75928;SDS011;64606;44.062;2.986;2024-03-23T06:32:20;1.65;;;0.98;;
75928;SDS011;64606;44.062;2.986;2024-03-23T06:34:46;1.58;;;1.00;;
75928;SDS011;64606;44.062;2.986;2024-03-23T06:37:13;3.25;;;1.20;;
75928;SDS011;64606;44.062;2.986;2024-03-23T06:39:39;1.58;;;0.90;;
75928;SDS011;64606;44.062;2.986;2024-03-23T06:42:05;1.10;;;0.90;;
75928;SDS011;64606;44.062;2.986;2024-03-23T06:44:33;2.50;;;1.10;;
75928;SDS011;64606;44.062;2.986;2024-03-23T06:46:59;1.52;;;1.23;;
75928;SDS011;64606;44.062;2.986;2024-03-23T06:49:25;1.73;;;1.10;;
75928;SDS011;64606;44.062;2.986;2024-03-23T06:51:51;3.08;;;1.20;;
75928;SDS011;64606;44.062;2.986;2024-03-23T06:54:18;1.52;;;1.00;;
75928;SDS011;64606;44.062;2.986;2024-03-23T06:56:45;4.32;;;1.10;;
75928;SDS011;64606;44.062;2.986;2024-03-23T06:59:11;3.05;;;1.10;;
75928;SDS011;64606;44.062;2.986;2024-03-23T07:01:37;4.28;;;1.30;;
75928;SDS011;64606;44.062;2.986;2024-03-23T07:04:04;3.55;;;1.20;;
75928;SDS011;64606;44.062;2.986;2024-03-23T07:06:30;5.95;;;1.10;;
75928;SDS011;64606;44.062;2.986;2024-03-23T07:08:56;2.72;;;0.95;;
75928;SDS011;64606;44.062;2.986;2024-03-23T07:11:23;4.93;;;1.20;;
75928;SDS011;64606;44.062;2.986;2024-03-23T07:13:49;5.70;;;1.10;;
75928;SDS011;64606;44.062;2.986;2024-03-23T07:16:16;6.90;;;1.23;;
75928;SDS011;64606;44.062;2.986;2024-03-23T07:18:42;3.78;;;1.27;;
75928;SDS011;64606;44.062;2.986;2024-03-23T07:21:08;4.35;;;1.00;;
75928;SDS011;64606;44.062;2.986;2024-03-23T07:23:34;5.47;;;1.25;;
75928;SDS011;64606;44.062;2.986;2024-03-23T07:26:01;5.47;;;1.25;;
75928;SDS011;64606;44.062;2.986;2024-03-23T07:28:28;7.32;;;1.95;;
75928;SDS011;64606;44.062;2.986;2024-03-23T07:31:10;6.45;;;1.23;;
75928;SDS011;64606;44.062;2.986;2024-03-23T07:33:37;9.15;;;1.50;;
75928;SDS011;64606;44.062;2.986;2024-03-23T07:36:03;4.78;;;1.30;;
75928;SDS011;64606;44.062;2.986;2024-03-23T07:38:30;5.10;;;1.20;;
75928;SDS011;64606;44.062;2.986;2024-03-23T07:41:05;3.90;;;1.15;;
75928;SDS011;64606;44.062;2.986;2024-03-23T07:45:58;3.47;;;1.00;;
75928;SDS011;64606;44.062;2.986;2024-03-23T07:48:24;7.07;;;1.00;;
75928;SDS011;64606;44.062;2.986;2024-03-23T07:53:32;3.72;;;1.00;;
75928;SDS011;64606;44.062;2.986;2024-03-23T07:55:59;2.50;;;0.95;;
75928;SDS011;64606;44.062;2.986;2024-03-23T07:58:26;3.50;;;1.20;;
75928;SDS011;64606;44.062;2.986;2024-03-23T08:00:55;2.55;;;1.00;;
75928;SDS011;64606;44.062;2.986;2024-03-23T08:03:21;3.53;;;1.38;;
75928;SDS011;64606;44.062;2.986;2024-03-23T08:05:47;3.67;;;1.02;;
75928;SDS011;64606;44.062;2.986;2024-03-23T08:08:14;3.08;;;0.95;;
75928;SDS011;64606;44.062;2.986;2024-03-23T08:13:15;4.07;;;1.17;;
75928;SDS011;64606;44.062;2.986;2024-03-23T08:15:41;3.10;;;0.93;;
75928;SDS011;64606;44.062;2.986;2024-03-23T08:18:07;5.18;;;0.95;;
75928;SDS011;64606;44.062;2.986;2024-03-23T08:20:34;2.83;;;0.75;;
75928;SDS011;64606;44.062;2.986;2024-03-23T08:23:00;3.40;;;0.88;;
75928;SDS011;64606;44.062;2.986;2024-03-23T08:25:26;6.07;;;1.10;;
75928;SDS011;64606;44.062;2.986;2024-03-23T08:27:52;2.90;;;1.00;;
75928;SDS011;64606;44.062;2.986;2024-03-23T08:30:18;2.47;;;0.82;;
75928;SDS011;64606;44.062;2.986;2024-03-23T08:32:44;1.95;;;1.05;;
75928;SDS011;64606;44.062;2.986;2024-03-23T08:35:11;1.33;;;0.90;;
75928;SDS011;64606;44.062;2.986;2024-03-23T08:37:37;2.03;;;1.00;;
75928;SDS011;64606;44.062;2.986;2024-03-23T08:40:03;2.15;;;0.82;;
75928;SDS011;64606;44.062;2.986;2024-03-23T08:42:30;4.40;;;0.80;;
75928;SDS011;64606;44.062;2.986;2024-03-23T08:44:56;3.60;;;0.70;;
75928;SDS011;64606;44.062;2.986;2024-03-23T08:47:22;3.75;;;0.70;;
75928;SDS011;64606;44.062;2.986;2024-03-23T08:49:48;2.63;;;0.80;;
75928;SDS011;64606;44.062;2.986;2024-03-23T08:52:15;2.13;;;0.80;;
75928;SDS011;64606;44.062;2.986;2024-03-23T08:54:41;1.67;;;0.85;;
75928;SDS011;64606;44.062;2.986;2024-03-23T08:57:07;4.88;;;1.17;;
75928;SDS011;64606;44.062;2.986;2024-03-23T08:59:33;3.05;;;0.82;;
75928;SDS011;64606;44.062;2.986;2024-03-23T09:01:59;2.17;;;0.90;;
75928;SDS011;64606;44.062;2.986;2024-03-23T09:04:26;2.40;;;0.80;;
75928;SDS011;64606;44.062;2.986;2024-03-23T09:06:52;3.85;;;1.15;;
75928;SDS011;64606;44.062;2.986;2024-03-23T09:09:18;2.63;;;0.80;;
75928;SDS011;64606;44.062;2.986;2024-03-23T09:11:45;2.08;;;0.70;;
75928;SDS011;64606;44.062;2.986;2024-03-23T09:14:11;2.17;;;0.70;;
75928;SDS011;64606;44.062;2.986;2024-03-23T09:16:37;4.28;;;0.90;;
75928;SDS011;64606;44.062;2.986;2024-03-23T09:19:03;2.58;;;0.80;;
75928;SDS011;64606;44.062;2.986;2024-03-23T09:21:29;2.80;;;0.68;;
75928;SDS011;64606;44.062;2.986;2024-03-23T09:23:56;2.30;;;0.80;;
75928;SDS011;64606;44.062;2.986;2024-03-23T09:26:22;1.92;;;0.73;;
75928;SDS011;64606;44.062;2.986;2024-03-23T09:28:48;3.92;;;0.90;;
75928;SDS011;64606;44.062;2.986;2024-03-23T09:31:15;3.33;;;0.70;;
75928;SDS011;64606;44.062;2.986;2024-03-23T09:33:41;1.60;;;0.82;;
75928;SDS011;64606;44.062;2.986;2024-03-23T09:36:08;3.20;;;0.80;;
75928;SDS011;64606;44.062;2.986;2024-03-23T09:38:34;3.20;;;0.93;;
75928;SDS011;64606;44.062;2.986;2024-03-23T09:41:00;1.75;;;0.93;;
75928;SDS011;64606;44.062;2.986;2024-03-23T09:43:26;5.13;;;1.17;;
75928;SDS011;64606;44.062;2.986;2024-03-23T09:45:53;3.72;;;1.15;;
75928;SDS011;64606;44.062;2.986;2024-03-23T09:48:19;3.22;;;1.00;;
75928;SDS011;64606;44.062;2.986;2024-03-23T09:50:45;5.05;;;0.90;;
75928;SDS011;64606;44.062;2.986;2024-03-23T09:53:14;2.50;;;1.20;;
75928;SDS011;64606;44.062;2.986;2024-03-23T09:55:40;2.45;;;1.05;;
75928;SDS011;64606;44.062;2.986;2024-03-23T09:58:08;2.03;;;0.90;;
75928;SDS011;64606;44.062;2.986;2024-03-23T10:00:38;4.05;;;0.73;;
75928;SDS011;64606;44.062;2.986;2024-03-23T10:03:04;1.95;;;0.90;;
75928;SDS011;64606;44.062;2.986;2024-03-23T10:05:31;3.33;;;1.00;;
75928;SDS011;64606;44.062;2.986;2024-03-23T10:07:59;3.45;;;0.90;;
75928;SDS011;64606;44.062;2.986;2024-03-23T10:10:26;4.28;;;0.80;;
75928;SDS011;64606;44.062;2.986;2024-03-23T10:12:52;1.52;;;0.70;;
75928;SDS011;64606;44.062;2.986;2024-03-23T10:15:25;2.25;;;0.80;;
75928;SDS011;64606;44.062;2.986;2024-03-23T10:17:51;3.13;;;0.80;;
75928;SDS011;64606;44.062;2.986;2024-03-23T10:20:21;2.58;;;0.80;;
75928;SDS011;64606;44.062;2.986;2024-03-23T10:22:48;4.72;;;0.80;;
75928;SDS011;64606;44.062;2.986;2024-03-23T10:25:15;3.10;;;0.90;;
75928;SDS011;64606;44.062;2.986;2024-03-23T10:27:41;2.47;;;0.93;;
75928;SDS011;64606;44.062;2.986;2024-03-23T10:30:14;4.80;;;0.80;;
75928;SDS011;64606;44.062;2.986;2024-03-23T10:32:41;4.40;;;1.13;;
75928;SDS011;64606;44.062;2.986;2024-03-23T10:35:16;4.20;;;0.82;;
75928;SDS011;64606;44.062;2.986;2024-03-23T10:37:43;3.00;;;1.00;;
75928;SDS011;64606;44.062;2.986;2024-03-23T10:40:11;2.40;;;1.00;;
75928;SDS011;64606;44.062;2.986;2024-03-23T10:42:38;3.80;;;0.90;;
75928;SDS011;64606;44.062;2.986;2024-03-23T10:45:05;2.78;;;1.15;;
75928;SDS011;64606;44.062;2.986;2024-03-23T10:47:33;2.03;;;0.70;;
75928;SDS011;64606;44.062;2.986;2024-03-23T10:50:00;2.17;;;0.88;;
75928;SDS011;64606;44.062;2.986;2024-03-23T10:52:26;2.90;;;0.90;;
75928;SDS011;64606;44.062;2.986;2024-03-23T10:54:53;3.53;;;0.93;;
75928;SDS011;64606;44.062;2.986;2024-03-23T10:57:20;2.17;;;0.73;;
75928;SDS011;64606;44.062;2.986;2024-03-23T10:59:50;3.08;;;0.85;;
75928;SDS011;64606;44.062;2.986;2024-03-23T11:02:19;8.82;;;1.52;;
75928;SDS011;64606;44.062;2.986;2024-03-23T11:04:45;3.50;;;0.80;;
75928;SDS011;64606;44.062;2.986;2024-03-23T11:09:50;2.47;;;0.70;;
75928;SDS011;64606;44.062;2.986;2024-03-23T11:15:04;4.00;;;0.85;;
75928;SDS011;64606;44.062;2.986;2024-03-23T11:17:30;3.92;;;0.80;;
75928;SDS011;64606;44.062;2.986;2024-03-23T11:20:00;2.90;;;0.80;;
75928;SDS011;64606;44.062;2.986;2024-03-23T11:22:45;3.75;;;0.95;;
75928;SDS011;64606;44.062;2.986;2024-03-23T11:25:20;4.93;;;0.88;;
75928;SDS011;64606;44.062;2.986;2024-03-23T11:27:47;3.50;;;0.70;;
75928;SDS011;64606;44.062;2.986;2024-03-23T11:32:40;2.42;;;1.30;;
75928;SDS011;64606;44.062;2.986;2024-03-23T11:35:07;9.45;;;5.30;;
75928;SDS011;64606;44.062;2.986;2024-03-23T11:37:35;14.95;;;6.78;;
75928;SDS011;64606;44.062;2.986;2024-03-23T11:40:16;14.15;;;6.05;;
75928;SDS011;64606;44.062;2.986;2024-03-23T11:42:42;13.10;;;6.25;;
75928;SDS011;64606;44.062;2.986;2024-03-23T11:45:08;10.05;;;5.07;;
75928;SDS011;64606;44.062;2.986;2024-03-23T11:47:35;8.40;;;3.17;;
75928;SDS011;64606;44.062;2.986;2024-03-23T11:50:01;5.95;;;2.97;;
75928;SDS011;64606;44.062;2.986;2024-03-23T11:52:27;6.10;;;3.17;;
75928;SDS011;64606;44.062;2.986;2024-03-23T11:55:02;6.30;;;2.80;;
75928;SDS011;64606;44.062;2.986;2024-03-23T11:59:54;5.00;;;1.73;;
75928;SDS011;64606;44.062;2.986;2024-03-23T12:02:21;3.90;;;1.48;;
75928;SDS011;64606;44.062;2.986;2024-03-23T12:04:47;6.25;;;1.55;;
75928;SDS011;64606;44.062;2.986;2024-03-23T12:09:39;2.55;;;1.50;;
75928;SDS011;64606;44.062;2.986;2024-03-23T12:12:16;5.07;;;1.50;;
75928;SDS011;64606;44.062;2.986;2024-03-23T12:14:44;4.35;;;1.45;;
75928;SDS011;64606;44.062;2.986;2024-03-23T12:17:14;4.18;;;1.67;;
75928;SDS011;64606;44.062;2.986;2024-03-23T12:19:41;3.30;;;1.30;;
75928;SDS011;64606;44.062;2.986;2024-03-23T12:22:07;4.85;;;1.70;;
75928;SDS011;64606;44.062;2.986;2024-03-23T12:24:34;2.55;;;1.52;;
75928;SDS011;64606;44.062;2.986;2024-03-23T12:27:01;4.03;;;1.48;;
75928;SDS011;64606;44.062;2.986;2024-03-23T12:29:28;3.75;;;1.50;;
75928;SDS011;64606;44.062;2.986;2024-03-23T12:31:54;11.68;;;2.47;;
75928;SDS011;64606;44.062;2.986;2024-03-23T12:34:21;14.73;;;2.80;;
75928;SDS011;64606;44.062;2.986;2024-03-23T12:36:47;7.25;;;2.05;;
75928;SDS011;64606;44.062;2.986;2024-03-23T12:39:13;20.88;;;2.40;;
75928;SDS011;64606;44.062;2.986;2024-03-23T12:41:39;6.65;;;1.63;;
75928;SDS011;64606;44.062;2.986;2024-03-23T12:44:05;4.90;;;1.08;;
75928;SDS011;64606;44.062;2.986;2024-03-23T12:46:33;10.95;;;1.55;;
75928;SDS011;64606;44.062;2.986;2024-03-23T12:48:59;9.43;;;1.45;;
75928;SDS011;64606;44.062;2.986;2024-03-23T12:51:25;5.00;;;1.20;;
75928;SDS011;64606;44.062;2.986;2024-03-23T12:53:52;9.57;;;1.20;;
75928;SDS011;64606;44.062;2.986;2024-03-23T12:56:18;4.93;;;1.30;;
75928;SDS011;64606;44.062;2.986;2024-03-23T12:58:44;6.57;;;1.30;;
75928;SDS011;64606;44.062;2.986;2024-03-23T13:01:10;3.38;;;0.95;;
75928;SDS011;64606;44.062;2.986;2024-03-23T13:03:36;3.38;;;0.80;;
75928;SDS011;64606;44.062;2.986;2024-03-23T13:06:02;5.15;;;0.80;;
75928;SDS011;64606;44.062;2.986;2024-03-23T13:08:32;5.78;;;1.35;;
75928;SDS011;64606;44.062;2.986;2024-03-23T13:10:58;6.63;;;0.82;;
75928;SDS011;64606;44.062;2.986;2024-03-23T13:13:25;5.68;;;0.90;;
75928;SDS011;64606;44.062;2.986;2024-03-23T13:15:51;3.58;;;0.90;;
75928;SDS011;64606;44.062;2.986;2024-03-23T13:18:17;5.05;;;0.90;;
75928;SDS011;64606;44.062;2.986;2024-03-23T13:20:43;3.65;;;0.70;;
75928;SDS011;64606;44.062;2.986;2024-03-23T13:23:10;2.80;;;0.75;;
75928;SDS011;64606;44.062;2.986;2024-03-23T13:25:37;3.20;;;0.80;;
75928;SDS011;64606;44.062;2.986;2024-03-23T13:28:03;2.88;;;0.80;;
75928;SDS011;64606;44.062;2.986;2024-03-23T13:30:29;2.63;;;0.88;;
75928;SDS011;64606;44.062;2.986;2024-03-23T13:32:55;3.25;;;0.85;;
75928;SDS011;64606;44.062;2.986;2024-03-23T13:35:21;6.35;;;1.10;;
75928;SDS011;64606;44.062;2.986;2024-03-23T13:37:48;1.77;;;0.80;;
75928;SDS011;64606;44.062;2.986;2024-03-23T13:40:14;3.85;;;0.90;;
75928;SDS011;64606;44.062;2.986;2024-03-23T13:42:40;6.53;;;0.93;;
75928;SDS011;64606;44.062;2.986;2024-03-23T13:45:06;6.10;;;0.80;;
75928;SDS011;64606;44.062;2.986;2024-03-23T13:47:32;5.22;;;1.10;;
75928;SDS011;64606;44.062;2.986;2024-03-23T13:49:58;2.90;;;0.80;;
75928;SDS011;64606;44.062;2.986;2024-03-23T13:52:24;4.35;;;0.90;;
75928;SDS011;64606;44.062;2.986;2024-03-23T13:54:51;4.53;;;0.98;;
75928;SDS011;64606;44.062;2.986;2024-03-23T13:57:18;3.60;;;1.10;;
75928;SDS011;64606;44.062;2.986;2024-03-23T13:59:46;4.50;;;0.98;;
75928;SDS011;64606;44.062;2.986;2024-03-23T14:02:14;4.53;;;0.80;;
75928;SDS011;64606;44.062;2.986;2024-03-23T14:04:40;7.57;;;1.02;;
75928;SDS011;64606;44.062;2.986;2024-03-23T14:07:06;2.83;;;0.90;;
75928;SDS011;64606;44.062;2.986;2024-03-23T14:09:34;2.70;;;0.77;;
75928;SDS011;64606;44.062;2.986;2024-03-23T14:12:00;6.22;;;0.80;;
75928;SDS011;64606;44.062;2.986;2024-03-23T14:14:26;3.10;;;0.85;;
75928;SDS011;64606;44.062;2.986;2024-03-23T14:16:52;5.45;;;0.93;;
75928;SDS011;64606;44.062;2.986;2024-03-23T14:19:18;6.13;;;1.00;;
75928;SDS011;64606;44.062;2.986;2024-03-23T14:21:44;2.10;;;0.60;;
75928;SDS011;64606;44.062;2.986;2024-03-23T14:24:11;3.67;;;0.80;;
75928;SDS011;64606;44.062;2.986;2024-03-23T14:26:37;7.95;;;0.80;;
75928;SDS011;64606;44.062;2.986;2024-03-23T14:29:04;4.13;;;0.80;;
75928;SDS011;64606;44.062;2.986;2024-03-23T14:31:30;2.47;;;0.80;;
75928;SDS011;64606;44.062;2.986;2024-03-23T14:33:56;2.42;;;0.70;;
75928;SDS011;64606;44.062;2.986;2024-03-23T14:36:22;3.50;;;0.90;;
75928;SDS011;64606;44.062;2.986;2024-03-23T14:38:49;1.83;;;0.70;;
75928;SDS011;64606;44.062;2.986;2024-03-23T14:41:17;2.70;;;0.80;;
75928;SDS011;64606;44.062;2.986;2024-03-23T14:43:43;3.25;;;0.93;;
75928;SDS011;64606;44.062;2.986;2024-03-23T14:46:13;2.88;;;0.70;;
75928;SDS011;64606;44.062;2.986;2024-03-23T14:48:39;2.47;;;0.70;;
75928;SDS011;64606;44.062;2.986;2024-03-23T14:51:06;2.78;;;0.80;;
75928;SDS011;64606;44.062;2.986;2024-03-23T14:53:36;2.55;;;0.80;;
75928;SDS011;64606;44.062;2.986;2024-03-23T14:56:05;2.28;;;0.70;;
75928;SDS011;64606;44.062;2.986;2024-03-23T14:58:31;2.05;;;0.80;;
75928;SDS011;64606;44.062;2.986;2024-03-23T15:01:02;3.45;;;0.93;;
75928;SDS011;64606;44.062;2.986;2024-03-23T15:03:28;4.38;;;0.80;;
75928;SDS011;64606;44.062;2.986;2024-03-23T15:05:55;4.05;;;0.98;;
75928;SDS011;64606;44.062;2.986;2024-03-23T15:08:22;3.10;;;0.70;;
75928;SDS011;64606;44.062;2.986;2024-03-23T15:10:48;2.78;;;0.80;;
75928;SDS011;64606;44.062;2.986;2024-03-23T15:13:14;2.40;;;0.88;;
75928;SDS011;64606;44.062;2.986;2024-03-23T15:15:41;3.85;;;0.60;;
75928;SDS011;64606;44.062;2.986;2024-03-23T15:18:12;2.28;;;0.60;;
75928;SDS011;64606;44.062;2.986;2024-03-23T15:20:40;3.10;;;0.80;;
75928;SDS011;64606;44.062;2.986;2024-03-23T15:23:06;3.38;;;0.80;;
75928;SDS011;64606;44.062;2.986;2024-03-23T15:25:34;2.22;;;0.70;;
75928;SDS011;64606;44.062;2.986;2024-03-23T15:28:00;3.40;;;0.68;;
75928;SDS011;64606;44.062;2.986;2024-03-23T15:30:27;3.25;;;0.70;;
75928;SDS011;64606;44.062;2.986;2024-03-23T15:32:53;5.45;;;0.77;;
75928;SDS011;64606;44.062;2.986;2024-03-23T15:35:19;3.90;;;0.93;;
75928;SDS011;64606;44.062;2.986;2024-03-23T15:37:48;1.13;;;0.63;;
75928;SDS011;64606;44.062;2.986;2024-03-23T15:40:14;4.35;;;1.02;;
75928;SDS011;64606;44.062;2.986;2024-03-23T15:42:40;3.03;;;0.93;;
75928;SDS011;64606;44.062;2.986;2024-03-23T15:45:06;3.20;;;0.68;;
75928;SDS011;64606;44.062;2.986;2024-03-23T15:47:34;3.25;;;0.90;;
75928;SDS011;64606;44.062;2.986;2024-03-23T15:50:00;2.00;;;0.63;;
75928;SDS011;64606;44.062;2.986;2024-03-23T15:52:28;1.52;;;0.70;;
75928;SDS011;64606;44.062;2.986;2024-03-23T15:54:54;2.95;;;0.70;;
75928;SDS011;64606;44.062;2.986;2024-03-23T15:57:23;3.42;;;0.73;;
75928;SDS011;64606;44.062;2.986;2024-03-23T15:59:49;2.08;;;0.73;;